Time;durP1;ratioP1;P1;durP2;ratioP2;P2;SDS_P1;SDS_P2;PMS_P1;PMS_P2;Temp;Humidity;BMP_temperature;BMP_pressure;BME280_temperature;BME280_humidity;BME280_pressure;Samples;Min_cycle;Max_cycle;Signal;HPM_P1;HPM_P2
2022/01/10 00:02:01;;;;;;;36.70;18.60;;;;;;;;;;5013872;28;20166;-60
2022/01/10 00:04:27;;;;;;;36.95;19.08;;;;;;;;;;5013890;28;20171;-61
2022/01/10 00:06:53;;;;;;;35.22;19.05;;;;;;;;;;5014141;28;20174;-60
2022/01/10 00:09:19;;;;;;;35.72;18.45;;;;;;;;;;5013403;28;20174;-61
2022/01/10 00:11:45;;;;;;;32.55;18.80;;;;;;;;;;5013951;28;20162;-60
2022/01/10 00:14:11;;;;;;;35.60;19.33;;;;;;;;;;5013898;28;20177;-60
2022/01/10 00:16:37;;;;;;;34.88;19.23;;;;;;;;;;5014358;28;20618;-61
2022/01/10 00:19:03;;;;;;;40.80;21.02;;;;;;;;;;5015023;28;20220;-60
2022/01/10 00:21:29;;;;;;;41.03;18.90;;;;;;;;;;5015203;28;20236;-60
2022/01/10 00:23:55;;;;;;;39.67;20.08;;;;;;;;;;5015190;28;20170;-60
2022/01/10 00:26:21;;;;;;;33.50;18.77;;;;;;;;;;5015539;28;20178;-60
2022/01/10 00:28:47;;;;;;;36.60;18.60;;;;;;;;;;5018671;28;20170;-60
2022/01/10 00:31:12;;;;;;;37.20;19.35;;;;;;;;;;5021998;28;20180;-60
2022/01/10 00:33:38;;;;;;;39.03;19.60;;;;;;;;;;5025199;28;20507;-61
2022/01/10 00:36:04;;;;;;;34.67;19.50;;;;;;;;;;5025488;28;20525;-61
2022/01/10 00:38:30;;;;;;;39.70;20.52;;;;;;;;;;5027578;28;20170;-61
2022/01/10 00:40:56;;;;;;;36.53;19.52;;;;;;;;;;5027295;28;20261;-61
2022/01/10 00:43:31;;;;;;;39.25;19.98;;;;;;;;;;5026636;28;20588;-61
2022/01/10 00:45:58;;;;;;;37.85;20.83;;;;;;;;;;5027786;28;20497;-60
2022/01/10 00:48:23;;;;;;;36.97;20.58;;;;;;;;;;5027562;28;20182;-60
2022/01/10 00:50:49;;;;;;;36.60;19.83;;;;;;;;;;5028164;28;20171;-60
2022/01/10 00:53:15;;;;;;;36.53;19.80;;;;;;;;;;5025311;28;20240;-60
2022/01/10 00:55:41;;;;;;;38.45;20.13;;;;;;;;;;5025683;28;20193;-60
2022/01/10 00:58:07;;;;;;;39.13;20.20;;;;;;;;;;5031070;28;20471;-60
2022/01/10 01:00:33;;;;;;;37.80;20.42;;;;;;;;;;5021269;28;20162;-60
2022/01/10 01:02:59;;;;;;;34.45;19.98;;;;;;;;;;4998105;28;20253;-59
2022/01/10 01:05:26;;;;;;;36.92;20.35;;;;;;;;;;5022970;28;20487;-60
2022/01/10 01:07:52;;;;;;;36.97;20.85;;;;;;;;;;5031667;28;20177;-60
2022/01/10 01:13:10;;;;;;;38.42;19.90;;;;;;;;;;5013573;28;20181;-59
2022/01/10 01:15:56;;;;;;;33.50;19.80;;;;;;;;;;5013876;28;20150;-58
2022/01/10 01:18:44;;;;;;;33.03;19.58;;;;;;;;;;5013544;28;20178;-58
2022/01/10 01:24:03;;;;;;;33.90;19.27;;;;;;;;;;5017016;28;20589;-59
2022/01/10 01:26:29;;;;;;;33.72;19.00;;;;;;;;;;5023449;28;20197;-60
2022/01/10 01:28:55;;;;;;;34.58;19.65;;;;;;;;;;5024327;28;20170;-59
2022/01/10 01:31:21;;;;;;;32.60;19.70;;;;;;;;;;5016698;28;20174;-59
2022/01/10 01:33:48;;;;;;;35.97;20.85;;;;;;;;;;5016789;28;20185;-58
2022/01/10 01:36:20;;;;;;;37.08;20.65;;;;;;;;;;5016589;28;20189;-59
2022/01/10 01:38:46;;;;;;;33.78;19.63;;;;;;;;;;5016711;28;20155;-60
2022/01/10 01:41:22;;;;;;;36.47;19.75;;;;;;;;;;5016364;28;20171;-58
2022/01/10 01:43:49;;;;;;;40.10;20.65;;;;;;;;;;5016496;28;20598;-60
2022/01/10 01:46:15;;;;;;;35.47;19.90;;;;;;;;;;5016488;28;20181;-58
2022/01/10 01:48:41;;;;;;;36.40;19.58;;;;;;;;;;5016173;28;20244;-59
2022/01/10 01:51:07;;;;;;;33.67;18.83;;;;;;;;;;5016514;28;20714;-59
2022/01/10 01:53:36;;;;;;;35.72;20.02;;;;;;;;;;5015909;28;20190;-59
2022/01/10 01:56:03;;;;;;;34.92;20.25;;;;;;;;;;5015956;28;20716;-59
2022/01/10 01:58:28;;;;;;;33.42;18.75;;;;;;;;;;5016104;28;20249;-59
2022/01/10 02:00:54;;;;;;;35.20;20.15;;;;;;;;;;5016112;28;20194;-58
2022/01/10 02:03:20;;;;;;;35.97;20.08;;;;;;;;;;5015957;28;20561;-60
2022/01/10 02:05:46;;;;;;;36.75;19.67;;;;;;;;;;4998408;28;20232;-59
2022/01/10 02:08:12;;;;;;;37.17;20.27;;;;;;;;;;5016107;28;20531;-59
2022/01/10 02:10:38;;;;;;;36.67;19.95;;;;;;;;;;5016027;28;20260;-60
2022/01/10 02:13:05;;;;;;;33.88;19.65;;;;;;;;;;5015950;28;20174;-61
2022/01/10 02:15:52;;;;;;;38.42;20.73;;;;;;;;;;5015767;28;20185;-62
2022/01/10 02:18:19;;;;;;;38.20;20.80;;;;;;;;;;5015928;28;20146;-61
2022/01/10 02:20:46;;;;;;;36.97;20.25;;;;;;;;;;5015642;28;20170;-58
2022/01/10 02:23:12;;;;;;;40.38;22.35;;;;;;;;;;5015828;28;20201;-60
2022/01/10 02:25:38;;;;;;;35.08;19.98;;;;;;;;;;5015545;28;20174;-60
2022/01/10 02:28:04;;;;;;;36.50;20.58;;;;;;;;;;5015806;28;20166;-60
2022/01/10 02:30:31;;;;;;;34.42;19.17;;;;;;;;;;5015575;28;20494;-59
2022/01/10 02:32:57;;;;;;;36.22;20.92;;;;;;;;;;5015268;28;20515;-60
2022/01/10 02:35:27;;;;;;;40.38;22.00;;;;;;;;;;5015388;28;20554;-60
2022/01/10 02:37:54;;;;;;;40.30;21.00;;;;;;;;;;5015204;28;20608;-60
2022/01/10 02:40:22;;;;;;;39.80;21.77;;;;;;;;;;5015481;28;20170;-59
2022/01/10 02:42:48;;;;;;;37.10;20.92;;;;;;;;;;5015431;28;20170;-60
2022/01/10 02:45:14;;;;;;;39.45;21.00;;;;;;;;;;5015151;28;20517;-60
2022/01/10 02:47:40;;;;;;;37.55;20.70;;;;;;;;;;5015106;28;20173;-60
2022/01/10 02:50:07;;;;;;;39.15;21.13;;;;;;;;;;5014988;28;20170;-60
2022/01/10 02:52:34;;;;;;;39.53;22.35;;;;;;;;;;5014958;28;20182;-60
2022/01/10 02:55:01;;;;;;;37.58;21.50;;;;;;;;;;5014885;28;20155;-60
2022/01/10 02:57:28;;;;;;;37.97;20.70;;;;;;;;;;5015132;28;20198;-60
2022/01/10 02:59:54;;;;;;;41.78;22.70;;;;;;;;;;5014846;28;20163;-60
2022/01/10 03:02:23;;;;;;;35.95;22.10;;;;;;;;;;5014899;28;20170;-60
2022/01/10 03:04:49;;;;;;;39.72;20.92;;;;;;;;;;5014790;28;20605;-60
2022/01/10 03:07:16;;;;;;;39.08;22.55;;;;;;;;;;5014763;28;20170;-60
2022/01/10 03:09:42;;;;;;;35.72;20.48;;;;;;;;;;5014878;28;20301;-60
2022/01/10 03:12:09;;;;;;;35.80;20.95;;;;;;;;;;5014695;28;20167;-60
2022/01/10 03:14:35;;;;;;;44.33;23.42;;;;;;;;;;5014713;28;20169;-60
2022/01/10 03:17:01;;;;;;;40.03;22.38;;;;;;;;;;5014955;28;20292;-60
2022/01/10 03:19:27;;;;;;;37.50;20.88;;;;;;;;;;5014430;28;20283;-60
2022/01/10 03:21:53;;;;;;;39.85;21.50;;;;;;;;;;5014483;28;20227;-60
2022/01/10 03:24:19;;;;;;;42.60;22.65;;;;;;;;;;5014443;28;20582;-59
2022/01/10 03:26:45;;;;;;;40.45;23.35;;;;;;;;;;5014485;28;20170;-60
2022/01/10 03:29:11;;;;;;;38.92;22.67;;;;;;;;;;5014283;28;20494;-60
2022/01/10 03:31:37;;;;;;;41.60;23.55;;;;;;;;;;5014461;28;20625;-60
2022/01/10 03:34:05;;;;;;;37.60;23.10;;;;;;;;;;5014264;28;20572;-60
2022/01/10 03:36:31;;;;;;;39.42;21.75;;;;;;;;;;5014287;28;20275;-58
2022/01/10 03:38:57;;;;;;;43.10;21.88;;;;;;;;;;5014124;28;20170;-60
2022/01/10 03:41:23;;;;;;;44.70;23.70;;;;;;;;;;5013978;28;20529;-60
2022/01/10 03:43:49;;;;;;;42.70;22.98;;;;;;;;;;5014013;28;20166;-61
2022/01/10 03:46:15;;;;;;;42.28;24.48;;;;;;;;;;5013901;28;20261;-60
2022/01/10 03:48:41;;;;;;;47.83;24.63;;;;;;;;;;5014102;28;20185;-60
2022/01/10 03:51:07;;;;;;;42.40;23.30;;;;;;;;;;5014033;28;20170;-60
2022/01/10 03:53:33;;;;;;;42.72;23.58;;;;;;;;;;5013952;28;20243;-60
2022/01/10 03:55:59;;;;;;;46.28;24.20;;;;;;;;;;5013768;28;20233;-60
2022/01/10 03:58:25;;;;;;;45.33;22.63;;;;;;;;;;5013955;28;20204;-60
2022/01/10 04:00:51;;;;;;;43.83;24.30;;;;;;;;;;5013892;28;20166;-61
2022/01/10 04:03:17;;;;;;;41.10;22.45;;;;;;;;;;5013859;28;20178;-60
2022/01/10 04:05:43;;;;;;;47.17;26.17;;;;;;;;;;5013798;28;20536;-61
2022/01/10 04:08:09;;;;;;;44.55;24.00;;;;;;;;;;5013861;28;20204;-60
2022/01/10 04:10:35;;;;;;;46.97;24.90;;;;;;;;;;5014146;28;20224;-60
2022/01/10 04:13:01;;;;;;;45.42;24.95;;;;;;;;;;5014179;28;20166;-60
2022/01/10 04:15:27;;;;;;;47.65;24.85;;;;;;;;;;5014072;28;20185;-60
2022/01/10 04:17:56;;;;;;;44.25;24.50;;;;;;;;;;5014139;28;20186;-60
2022/01/10 04:20:22;;;;;;;46.10;23.70;;;;;;;;;;5013958;28;20166;-61
2022/01/10 04:22:48;;;;;;;44.22;23.65;;;;;;;;;;5013824;28;20162;-60
2022/01/10 04:25:14;;;;;;;43.58;23.33;;;;;;;;;;5013929;28;20216;-60
2022/01/10 04:27:40;;;;;;;43.13;23.58;;;;;;;;;;4996577;28;20483;-61
2022/01/10 04:30:06;;;;;;;41.35;24.42;;;;;;;;;;5013613;28;20170;-60
2022/01/10 04:32:32;;;;;;;42.38;23.25;;;;;;;;;;5013613;28;20171;-60
2022/01/10 04:34:59;;;;;;;42.83;24.73;;;;;;;;;;5013960;28;20212;-60
2022/01/10 04:37:25;;;;;;;43.55;24.25;;;;;;;;;;5013834;28;20198;-60
2022/01/10 04:39:51;;;;;;;44.58;23.90;;;;;;;;;;5013621;28;20170;-60
2022/01/10 04:42:17;;;;;;;42.72;24.83;;;;;;;;;;5013459;28;20175;-60
2022/01/10 04:44:43;;;;;;;46.83;24.13;;;;;;;;;;5013406;28;20613;-60
2022/01/10 04:47:09;;;;;;;48.42;25.75;;;;;;;;;;5013673;28;20177;-60
2022/01/10 04:50:01;;;;;;;43.05;24.25;;;;;;;;;;5013606;28;20172;-60
2022/01/10 04:52:21;;;;;;;44.95;23.77;;;;;;;;;;5013170;28;20190;-60
2022/01/10 04:54:47;;;;;;;51.58;27.08;;;;;;;;;;5013431;28;20162;-60
2022/01/10 04:57:13;;;;;;;51.13;26.17;;;;;;;;;;5016270;28;20189;-60
2022/01/10 04:59:39;;;;;;;47.22;26.45;;;;;;;;;;5017180;28;20166;-60
2022/01/10 05:02:05;;;;;;;48.63;25.95;;;;;;;;;;5017021;28;20170;-60
2022/01/10 05:04:31;;;;;;;46.50;26.27;;;;;;;;;;5017071;28;20241;-60
2022/01/10 05:06:57;;;;;;;46.55;25.75;;;;;;;;;;5016855;28;20181;-60
2022/01/10 05:09:23;;;;;;;53.83;26.92;;;;;;;;;;5016963;28;20217;-60
2022/01/10 05:11:48;;;;;;;53.42;26.75;;;;;;;;;;5016871;28;20241;-60
2022/01/10 05:14:14;;;;;;;49.88;27.05;;;;;;;;;;5017042;28;20170;-60
2022/01/10 05:16:40;;;;;;;51.72;26.90;;;;;;;;;;5016798;28;20676;-59
2022/01/10 05:19:07;;;;;;;51.97;26.83;;;;;;;;;;5016786;28;20158;-60
2022/01/10 05:21:33;;;;;;;51.88;27.52;;;;;;;;;;5016638;28;20480;-60
2022/01/10 05:23:59;;;;;;;55.50;28.90;;;;;;;;;;5016644;28;20574;-60
2022/01/10 05:26:25;;;;;;;53.40;30.27;;;;;;;;;;5016935;28;20178;-60
2022/01/10 05:28:55;;;;;;;53.63;28.63;;;;;;;;;;5016556;28;20194;-60
2022/01/10 05:31:21;;;;;;;57.20;30.13;;;;;;;;;;5016408;28;20653;-60
2022/01/10 05:33:47;;;;;;;55.53;29.75;;;;;;;;;;5016732;28;20566;-60
2022/01/10 05:36:13;;;;;;;56.42;30.02;;;;;;;;;;5016727;28;20198;-60
2022/01/10 05:38:39;;;;;;;52.00;29.15;;;;;;;;;;5016461;28;20613;-62
2022/01/10 05:41:05;;;;;;;57.63;30.60;;;;;;;;;;5016433;28;20249;-61
2022/01/10 05:43:31;;;;;;;55.05;30.08;;;;;;;;;;5016420;28;20245;-60
2022/01/10 05:45:57;;;;;;;59.88;31.23;;;;;;;;;;5016530;28;20206;-61
2022/01/10 05:48:28;;;;;;;56.80;30.10;;;;;;;;;;5016628;28;20201;-61
2022/01/10 05:50:55;;;;;;;53.88;29.38;;;;;;;;;;5016156;28;20158;-60
2022/01/10 05:53:21;;;;;;;55.10;30.77;;;;;;;;;;5015862;28;20186;-60
2022/01/10 05:55:47;;;;;;;60.58;30.88;;;;;;;;;;5016128;28;20217;-61
2022/01/10 05:58:13;;;;;;;59.17;30.73;;;;;;;;;;5016096;28;20258;-61
2022/01/10 06:00:40;;;;;;;59.60;32.42;;;;;;;;;;5016431;28;20512;-58
2022/01/10 06:03:06;;;;;;;62.85;33.10;;;;;;;;;;5016294;28;20516;-61
2022/01/10 06:05:32;;;;;;;66.72;32.85;;;;;;;;;;5016279;28;20162;-63
2022/01/10 06:07:59;;;;;;;60.67;31.92;;;;;;;;;;5015484;28;20174;-60
2022/01/10 06:10:25;;;;;;;63.80;32.35;;;;;;;;;;5016096;28;20532;-61
2022/01/10 06:12:51;;;;;;;59.60;31.60;;;;;;;;;;5015929;28;20166;-61
2022/01/10 06:15:17;;;;;;;65.00;32.53;;;;;;;;;;5015935;28;20458;-60
2022/01/10 06:17:43;;;;;;;57.40;32.10;;;;;;;;;;5015593;28;20210;-61
2022/01/10 06:20:09;;;;;;;58.97;31.17;;;;;;;;;;5015678;28;20171;-60
2022/01/10 06:22:35;;;;;;;60.72;32.80;;;;;;;;;;5015591;28;20228;-60
2022/01/10 06:25:01;;;;;;;62.95;32.33;;;;;;;;;;5015656;28;20166;-60
2022/01/10 06:27:27;;;;;;;67.80;33.25;;;;;;;;;;5015580;28;20189;-60
2022/01/10 06:29:53;;;;;;;66.25;34.58;;;;;;;;;;5015392;28;20201;-60
2022/01/10 06:32:19;;;;;;;59.97;32.80;;;;;;;;;;5015735;28;20175;-60
2022/01/10 06:34:44;;;;;;;56.75;32.53;;;;;;;;;;5015581;28;20522;-60
2022/01/10 06:37:10;;;;;;;65.13;32.80;;;;;;;;;;5015106;28;20664;-60
2022/01/10 06:39:36;;;;;;;64.57;34.47;;;;;;;;;;5015387;28;20235;-60
2022/01/10 06:42:03;;;;;;;63.28;33.38;;;;;;;;;;5015222;28;20154;-60
2022/01/10 06:44:29;;;;;;;60.08;32.92;;;;;;;;;;5015327;28;20166;-61
2022/01/10 06:46:55;;;;;;;67.32;34.60;;;;;;;;;;5015256;28;20261;-60
2022/01/10 06:49:20;;;;;;;63.30;32.80;;;;;;;;;;5015071;28;20176;-61
2022/01/10 06:51:46;;;;;;;57.13;31.88;;;;;;;;;;5015139;28;20162;-60
2022/01/10 06:54:12;;;;;;;68.93;34.15;;;;;;;;;;5015134;28;20669;-62
2022/01/10 06:56:38;;;;;;;61.20;32.72;;;;;;;;;;5014870;28;20190;-60
2022/01/10 06:59:04;;;;;;;63.40;34.50;;;;;;;;;;5015964;28;20170;-60
2022/01/10 07:01:30;;;;;;;63.38;34.90;;;;;;;;;;5015204;28;20170;-60
2022/01/10 07:03:57;;;;;;;63.95;33.30;;;;;;;;;;5014913;28;20174;-60
2022/01/10 07:06:23;;;;;;;65.03;34.47;;;;;;;;;;5014542;28;20606;-60
2022/01/10 07:08:49;;;;;;;66.20;34.35;;;;;;;;;;5014829;28;20265;-60
2022/01/10 07:11:15;;;;;;;60.55;32.78;;;;;;;;;;5014894;28;20166;-60
2022/01/10 07:13:41;;;;;;;60.47;33.50;;;;;;;;;;5015014;28;20479;-59
2022/01/10 07:16:07;;;;;;;59.63;32.83;;;;;;;;;;5014729;28;20205;-58
2022/01/10 07:18:33;;;;;;;57.25;31.75;;;;;;;;;;5014378;28;20214;-59
2022/01/10 07:20:59;;;;;;;60.65;33.33;;;;;;;;;;5013708;28;20162;-60
2022/01/10 07:23:25;;;;;;;57.80;31.65;;;;;;;;;;5014548;28;20159;-60
2022/01/10 07:25:51;;;;;;;61.33;33.88;;;;;;;;;;5014434;28;20166;-59
2022/01/10 07:28:17;;;;;;;62.53;34.00;;;;;;;;;;5014158;28;20230;-60
2022/01/10 07:30:43;;;;;;;56.80;30.67;;;;;;;;;;5014333;28;20279;-60
2022/01/10 07:33:08;;;;;;;57.53;31.35;;;;;;;;;;5014151;28;20163;-60
2022/01/10 07:35:35;;;;;;;54.30;30.73;;;;;;;;;;5014141;28;20163;-60
2022/01/10 07:38:01;;;;;;;54.13;31.25;;;;;;;;;;5014031;28;20282;-60
2022/01/10 07:40:27;;;;;;;57.85;32.50;;;;;;;;;;5014020;28;20574;-60
2022/01/10 07:42:53;;;;;;;58.67;31.90;;;;;;;;;;5014018;28;20250;-60
2022/01/10 07:45:19;;;;;;;58.88;32.30;;;;;;;;;;5013986;28;20198;-60
2022/01/10 07:47:45;;;;;;;57.75;33.25;;;;;;;;;;5013980;28;20181;-60
2022/01/10 07:50:11;;;;;;;56.17;31.60;;;;;;;;;;5014162;28;20182;-60
2022/01/10 07:52:37;;;;;;;55.28;31.52;;;;;;;;;;5013860;28;20182;-60
2022/01/10 07:55:04;;;;;;;55.78;31.60;;;;;;;;;;5014010;28;20575;-60
2022/01/10 07:57:30;;;;;;;61.00;33.70;;;;;;;;;;5014064;28;20629;-60
2022/01/10 07:59:57;;;;;;;55.70;31.90;;;;;;;;;;5013963;28;20575;-60
2022/01/10 08:02:24;;;;;;;53.97;32.03;;;;;;;;;;5014323;28;20166;-60
2022/01/10 08:04:50;;;;;;;54.90;31.40;;;;;;;;;;5014032;28;20617;-60
2022/01/10 08:07:15;;;;;;;53.80;32.20;;;;;;;;;;5013972;28;20170;-60
2022/01/10 08:09:41;;;;;;;55.78;30.60;;;;;;;;;;5014034;28;20170;-60
2022/01/10 08:12:08;;;;;;;55.45;30.90;;;;;;;;;;5014707;28;20174;-60
2022/01/10 08:14:34;;;;;;;56.60;30.27;;;;;;;;;;4997730;28;20218;-60
2022/01/10 08:17:00;;;;;;;55.88;31.27;;;;;;;;;;5014733;28;20626;-60
2022/01/10 08:19:27;;;;;;;59.53;32.35;;;;;;;;;;5015147;28;20166;-60
2022/01/10 08:21:55;;;;;;;56.38;31.20;;;;;;;;;;5014980;28;20504;-60
2022/01/10 08:24:22;;;;;;;60.33;32.13;;;;;;;;;;5014502;28;20196;-60
2022/01/10 08:26:48;;;;;;;55.05;30.70;;;;;;;;;;5014539;28;20163;-60
2022/01/10 08:29:14;;;;;;;56.30;30.08;;;;;;;;;;5014641;28;20647;-60
2022/01/10 08:31:40;;;;;;;52.38;29.70;;;;;;;;;;5017125;28;20236;-60
2022/01/10 08:34:06;;;;;;;53.28;28.92;;;;;;;;;;5017650;28;20165;-60
2022/01/10 08:36:33;;;;;;;50.72;28.42;;;;;;;;;;5017703;28;20190;-61
2022/01/10 08:38:59;;;;;;;52.97;30.20;;;;;;;;;;5017536;28;20166;-61
2022/01/10 08:41:25;;;;;;;49.47;28.15;;;;;;;;;;5017546;28;20425;-60
2022/01/10 08:43:51;;;;;;;56.30;30.48;;;;;;;;;;5017751;28;20166;-61
2022/01/10 08:46:17;;;;;;;50.15;29.40;;;;;;;;;;5017403;28;20174;-60
2022/01/10 08:48:42;;;;;;;47.95;28.35;;;;;;;;;;5017275;28;20182;-60
2022/01/10 08:51:09;;;;;;;50.08;30.08;;;;;;;;;;5017308;28;20170;-60
2022/01/10 08:53:35;;;;;;;50.10;28.95;;;;;;;;;;5017359;28;20197;-60
2022/01/10 08:56:01;;;;;;;50.85;29.42;;;;;;;;;;5017199;28;20189;-61
2022/01/10 08:58:32;;;;;;;49.65;27.63;;;;;;;;;;5017496;28;20240;-61
2022/01/10 09:00:59;;;;;;;54.38;29.17;;;;;;;;;;5017129;28;20151;-59
2022/01/10 09:03:25;;;;;;;51.25;29.20;;;;;;;;;;5016884;28;20236;-60
2022/01/10 09:05:51;;;;;;;50.45;29.77;;;;;;;;;;5016934;28;20170;-60
2022/01/10 09:08:17;;;;;;;48.65;28.23;;;;;;;;;;5017130;28;20170;-60
2022/01/10 09:10:43;;;;;;;50.33;28.98;;;;;;;;;;5017187;28;20158;-60
2022/01/10 09:13:09;;;;;;;48.92;30.02;;;;;;;;;;5016872;28;20167;-60
2022/01/10 09:15:37;;;;;;;50.50;28.67;;;;;;;;;;5016637;28;20621;-60
2022/01/10 09:18:03;;;;;;;52.58;28.58;;;;;;;;;;5016670;28;20644;-60
2022/01/10 09:20:29;;;;;;;46.25;28.80;;;;;;;;;;5017266;28;20158;-60
2022/01/10 09:22:56;;;;;;;51.78;29.38;;;;;;;;;;5016744;28;20169;-60
2022/01/10 09:25:22;;;;;;;54.08;29.85;;;;;;;;;;5017023;28;20261;-58
2022/01/10 09:27:48;;;;;;;47.80;28.73;;;;;;;;;;5017003;28;20189;-60
2022/01/10 09:30:14;;;;;;;50.65;29.35;;;;;;;;;;5016790;28;20170;-59
2022/01/10 09:32:40;;;;;;;58.17;30.45;;;;;;;;;;5016817;28;20248;-60
2022/01/10 09:35:07;;;;;;;54.78;29.50;;;;;;;;;;5016381;28;20229;-61
2022/01/10 09:37:33;;;;;;;56.05;30.38;;;;;;;;;;5010262;28;20214;-60
2022/01/10 09:39:59;;;;;;;50.00;28.92;;;;;;;;;;4996814;28;20167;-59
2022/01/10 09:42:25;;;;;;;55.03;28.73;;;;;;;;;;4995329;28;20246;-60
2022/01/10 09:44:51;;;;;;;48.92;28.98;;;;;;;;;;4996747;28;20213;-60
2022/01/10 09:47:17;;;;;;;60.30;30.65;;;;;;;;;;4996746;28;20257;-58
2022/01/10 09:49:43;;;;;;;54.75;29.23;;;;;;;;;;4996826;28;20276;-57
2022/01/10 09:52:09;;;;;;;57.63;30.45;;;;;;;;;;4996869;28;20182;-60
2022/01/10 09:54:35;;;;;;;58.75;29.20;;;;;;;;;;4996846;28;20517;-61
2022/01/10 09:57:01;;;;;;;54.78;29.98;;;;;;;;;;4997065;28;20260;-60
2022/01/10 09:59:29;;;;;;;56.15;30.00;;;;;;;;;;4997574;28;20265;-64
2022/01/10 10:01:55;;;;;;;48.85;26.67;;;;;;;;;;5001800;28;20541;-64
2022/01/10 10:04:21;;;;;;;50.95;25.58;;;;;;;;;;5011906;28;20461;-65
2022/01/10 10:06:47;;;;;;;55.30;28.67;;;;;;;;;;5010722;28;20254;-64
2022/01/10 10:09:13;;;;;;;52.50;26.10;;;;;;;;;;5011021;28;20178;-64
2022/01/10 10:11:44;;;;;;;52.42;27.58;;;;;;;;;;5007356;28;20650;-64
2022/01/10 10:14:11;;;;;;;52.10;27.17;;;;;;;;;;5006507;28;20179;-65
2022/01/10 10:16:40;;;;;;;51.45;26.80;;;;;;;;;;4997929;28;20208;-65
2022/01/10 10:19:06;;;;;;;51.38;26.73;;;;;;;;;;4983204;28;20193;-63
2022/01/10 10:21:33;;;;;;;53.42;27.35;;;;;;;;;;5000689;28;20186;-64
2022/01/10 10:23:59;;;;;;;52.80;27.45;;;;;;;;;;5000917;28;20182;-64
2022/01/10 10:26:26;;;;;;;50.92;26.38;;;;;;;;;;5012906;28;20174;-65
2022/01/10 10:28:54;;;;;;;48.30;26.92;;;;;;;;;;4996802;28;20573;-64
2022/01/10 10:31:28;;;;;;;49.45;25.88;;;;;;;;;;4997974;28;20174;-64
2022/01/10 10:33:55;;;;;;;47.22;25.58;;;;;;;;;;4997765;28;20174;-64
2022/01/10 10:36:21;;;;;;;52.03;28.17;;;;;;;;;;4997540;28;20194;-64
2022/01/10 10:38:47;;;;;;;51.25;26.77;;;;;;;;;;4997509;28;20167;-64
2022/01/10 10:41:13;;;;;;;52.45;27.20;;;;;;;;;;4997052;28;20171;-65
2022/01/10 10:43:41;;;;;;;48.97;26.38;;;;;;;;;;4982003;28;20500;-65
2022/01/10 10:46:12;;;;;;;47.30;25.98;;;;;;;;;;4998702;28;20587;-65
2022/01/10 10:48:39;;;;;;;48.90;25.98;;;;;;;;;;4998556;28;20602;-65
2022/01/10 10:51:05;;;;;;;50.95;26.85;;;;;;;;;;4999056;28;20187;-65
2022/01/10 10:53:31;;;;;;;48.88;26.52;;;;;;;;;;4998467;28;20520;-65
2022/01/10 10:55:58;;;;;;;50.45;27.10;;;;;;;;;;4998294;28;20206;-64
2022/01/10 10:58:24;;;;;;;43.72;24.85;;;;;;;;;;4996184;28;20163;-64
2022/01/10 11:00:50;;;;;;;50.92;27.08;;;;;;;;;;4995453;28;20308;-64
2022/01/10 11:03:18;;;;;;;49.85;28.10;;;;;;;;;;4995863;28;20179;-65
2022/01/10 11:05:44;;;;;;;50.88;28.27;;;;;;;;;;4995362;28;20248;-64
2022/01/10 11:08:10;;;;;;;50.40;28.60;;;;;;;;;;4995774;28;20193;-64
2022/01/10 11:10:38;;;;;;;54.85;28.83;;;;;;;;;;4995002;28;20167;-65
2022/01/10 11:13:04;;;;;;;58.15;29.98;;;;;;;;;;4995504;28;20504;-64
2022/01/10 11:15:31;;;;;;;50.33;28.42;;;;;;;;;;4995488;28;20182;-64
2022/01/10 11:18:00;;;;;;;51.58;27.30;;;;;;;;;;4995235;28;20519;-64
2022/01/10 11:20:28;;;;;;;53.55;27.45;;;;;;;;;;4995144;28;20178;-64
2022/01/10 11:22:58;;;;;;;54.47;29.38;;;;;;;;;;4995114;28;20161;-64
2022/01/10 11:25:34;;;;;;;54.55;29.70;;;;;;;;;;4994918;28;20213;-64
2022/01/10 11:28:08;;;;;;;48.70;26.77;;;;;;;;;;4995484;28;20186;-64
2022/01/10 11:30:45;;;;;;;56.45;28.35;;;;;;;;;;4994909;28;20155;-64
2022/01/10 11:33:18;;;;;;;55.53;29.30;;;;;;;;;;4994909;28;20173;-64
2022/01/10 11:35:45;;;;;;;57.00;27.95;;;;;;;;;;4995135;28;20171;-65
2022/01/10 11:38:26;;;;;;;52.53;28.52;;;;;;;;;;4995781;28;20696;-63
2022/01/10 11:40:54;;;;;;;58.17;29.95;;;;;;;;;;5005099;28;20258;-64
2022/01/10 11:43:29;;;;;;;51.35;27.63;;;;;;;;;;5009685;28;20170;-64
2022/01/10 11:46:08;;;;;;;56.17;28.88;;;;;;;;;;4997495;28;20158;-64
2022/01/10 11:48:46;;;;;;;57.30;29.55;;;;;;;;;;4995683;28;20178;-65
2022/01/10 11:51:14;;;;;;;51.97;27.90;;;;;;;;;;4994591;28;20166;-65
2022/01/10 11:53:41;;;;;;;53.03;27.55;;;;;;;;;;4994551;28;20205;-65
2022/01/10 11:56:18;;;;;;;54.10;29.27;;;;;;;;;;4977548;28;20525;-64
2022/01/10 11:59:04;;;;;;;57.42;30.17;;;;;;;;;;4994520;28;20163;-64
2022/01/10 12:01:34;;;;;;;56.22;30.00;;;;;;;;;;4994239;28;20170;-63
2022/01/10 12:04:00;;;;;;;53.50;27.85;;;;;;;;;;4994681;28;20163;-64
2022/01/10 12:06:26;;;;;;;61.17;30.63;;;;;;;;;;4993709;28;20171;-64
2022/01/10 12:08:55;;;;;;;59.20;29.63;;;;;;;;;;4994385;28;20268;-64
2022/01/10 12:11:26;;;;;;;60.38;29.73;;;;;;;;;;4994480;28;20174;-64
2022/01/10 12:13:53;;;;;;;62.10;30.83;;;;;;;;;;4994513;28;20159;-63
2022/01/10 12:16:20;;;;;;;63.35;31.10;;;;;;;;;;4994269;28;20630;-63
2022/01/10 12:18:46;;;;;;;61.55;32.05;;;;;;;;;;4994674;28;20240;-64
2022/01/10 12:21:13;;;;;;;59.90;29.70;;;;;;;;;;4994782;28;20205;-63
2022/01/10 12:23:39;;;;;;;54.88;28.95;;;;;;;;;;4994338;28;20156;-63
2022/01/10 12:26:05;;;;;;;50.67;29.30;;;;;;;;;;4994023;28;20163;-62
2022/01/10 12:28:31;;;;;;;57.70;29.25;;;;;;;;;;4994231;28;20163;-63
2022/01/10 12:31:02;;;;;;;53.10;29.23;;;;;;;;;;4994072;28;20615;-63
2022/01/10 12:33:28;;;;;;;51.20;28.77;;;;;;;;;;4994734;28;20496;-63
2022/01/10 12:35:54;;;;;;;52.50;30.15;;;;;;;;;;4977002;28;20270;-63
2022/01/10 12:38:20;;;;;;;51.00;29.17;;;;;;;;;;4994147;28;20167;-63
2022/01/10 12:40:48;;;;;;;54.30;29.52;;;;;;;;;;4993861;28;20171;-63
2022/01/10 12:43:14;;;;;;;53.08;29.27;;;;;;;;;;4994272;28;20167;-63
2022/01/10 12:45:41;;;;;;;52.63;28.45;;;;;;;;;;4976618;28;20171;-63
2022/01/10 12:48:08;;;;;;;54.33;28.60;;;;;;;;;;4994185;28;20254;-64
2022/01/10 12:50:34;;;;;;;53.58;30.17;;;;;;;;;;4994234;28;20265;-63
2022/01/10 12:53:00;;;;;;;50.53;28.50;;;;;;;;;;4993804;28;20321;-63
2022/01/10 12:55:27;;;;;;;54.75;29.88;;;;;;;;;;4976740;28;20175;-64
2022/01/10 12:57:53;;;;;;;50.17;29.92;;;;;;;;;;4993838;28;20647;-64
2022/01/10 13:00:19;;;;;;;56.28;30.60;;;;;;;;;;4993856;28;20179;-64
2022/01/10 13:02:45;;;;;;;50.75;28.73;;;;;;;;;;4994050;28;20175;-64
2022/01/10 13:05:14;;;;;;;52.92;28.60;;;;;;;;;;4993959;28;20171;-64
2022/01/10 13:07:40;;;;;;;52.97;30.25;;;;;;;;;;4993890;28;20229;-63
2022/01/10 13:10:09;;;;;;;53.58;28.75;;;;;;;;;;4993888;28;20167;-63
2022/01/10 13:12:35;;;;;;;56.15;31.58;;;;;;;;;;4993546;28;20159;-63
2022/01/10 13:15:11;;;;;;;49.42;29.23;;;;;;;;;;4993865;28;20171;-64
2022/01/10 13:17:51;;;;;;;54.15;29.60;;;;;;;;;;4978216;28;20197;-63
2022/01/10 13:20:17;;;;;;;52.83;28.70;;;;;;;;;;4997464;28;20155;-63
2022/01/10 13:22:43;;;;;;;53.65;28.85;;;;;;;;;;4997110;28;20591;-63
2022/01/10 13:25:14;;;;;;;49.70;28.70;;;;;;;;;;4997485;28;20254;-63
2022/01/10 13:27:41;;;;;;;52.83;28.77;;;;;;;;;;4997145;28;20175;-63
2022/01/10 13:30:15;;;;;;;51.38;29.08;;;;;;;;;;4997160;28;20494;-63
2022/01/10 13:32:42;;;;;;;53.58;28.88;;;;;;;;;;4997104;28;20171;-63
2022/01/10 13:35:12;;;;;;;53.55;29.13;;;;;;;;;;4997423;28;20517;-63
2022/01/10 13:37:40;;;;;;;56.10;29.80;;;;;;;;;;4997191;28;20234;-63
2022/01/10 13:40:06;;;;;;;56.95;29.85;;;;;;;;;;4997270;28;20179;-63
2022/01/10 13:42:36;;;;;;;61.15;31.23;;;;;;;;;;4996972;28;20170;-64
2022/01/10 13:45:03;;;;;;;56.22;30.20;;;;;;;;;;4997229;28;20147;-63
2022/01/10 13:47:48;;;;;;;60.20;32.00;;;;;;;;;;4996950;28;20273;-63
2022/01/10 13:50:21;;;;;;;57.13;30.65;;;;;;;;;;4979641;28;20170;-63
2022/01/10 13:53:07;;;;;;;57.65;29.40;;;;;;;;;;4979377;28;20198;-63
2022/01/10 13:55:34;;;;;;;60.45;31.33;;;;;;;;;;4997442;28;20167;-63
2022/01/10 13:58:00;;;;;;;58.15;30.30;;;;;;;;;;4996777;28;20234;-63
2022/01/10 14:00:27;;;;;;;56.15;30.95;;;;;;;;;;4996827;28;20254;-63
2022/01/10 14:02:54;;;;;;;64.40;32.00;;;;;;;;;;4996626;28;20175;-63
2022/01/10 14:05:21;;;;;;;57.63;30.55;;;;;;;;;;4997209;28;20171;-63
2022/01/10 14:07:48;;;;;;;59.95;31.80;;;;;;;;;;4996726;28;20174;-63
2022/01/10 14:10:14;;;;;;;59.38;30.83;;;;;;;;;;4996871;28;20171;-63
2022/01/10 14:12:40;;;;;;;61.95;32.38;;;;;;;;;;4996507;28;20578;-63
2022/01/10 14:15:06;;;;;;;62.97;33.20;;;;;;;;;;4996597;28;20505;-63
2022/01/10 14:17:32;;;;;;;66.75;33.22;;;;;;;;;;4996133;28;20522;-63
2022/01/10 14:19:58;;;;;;;69.55;34.55;;;;;;;;;;4996706;28;20179;-63
2022/01/10 14:22:24;;;;;;;68.10;33.83;;;;;;;;;;4996509;28;20175;-63